sensor_id;sensor_type;location;lat;lon;timestamp;P1;durP1;ratioP1;P2;durP2;ratioP2
48363;SDS011;34170;54.364;18.582;2023-09-19T00:00:57;23.23;;;17.88;;
48363;SDS011;34170;54.364;18.582;2023-09-19T00:03:38;22.80;;;17.75;;
48363;SDS011;34170;54.364;18.582;2023-09-19T00:06:06;22.50;;;16.35;;
48363;SDS011;34170;54.364;18.582;2023-09-19T00:08:35;21.38;;;17.38;;
48363;SDS011;34170;54.364;18.582;2023-09-19T00:11:03;25.10;;;18.80;;
48363;SDS011;34170;54.364;18.582;2023-09-19T00:13:31;20.38;;;16.45;;
48363;SDS011;34170;54.364;18.582;2023-09-19T00:16:07;22.98;;;15.93;;
48363;SDS011;34170;54.364;18.582;2023-09-19T00:18:38;21.67;;;17.60;;
48363;SDS011;34170;54.364;18.582;2023-09-19T00:21:05;20.85;;;17.20;;
48363;SDS011;34170;54.364;18.582;2023-09-19T00:23:34;23.70;;;17.20;;
48363;SDS011;34170;54.364;18.582;2023-09-19T00:26:01;23.40;;;16.70;;
48363;SDS011;34170;54.364;18.582;2023-09-19T00:28:29;21.13;;;17.05;;
48363;SDS011;34170;54.364;18.582;2023-09-19T00:30:58;19.83;;;16.77;;
48363;SDS011;34170;54.364;18.582;2023-09-19T00:33:28;19.08;;;16.10;;
48363;SDS011;34170;54.364;18.582;2023-09-19T00:35:59;22.65;;;17.35;;
48363;SDS011;34170;54.364;18.582;2023-09-19T00:38:29;21.95;;;16.92;;
48363;SDS011;34170;54.364;18.582;2023-09-19T00:40:57;20.60;;;16.90;;
48363;SDS011;34170;54.364;18.582;2023-09-19T00:43:26;27.38;;;16.95;;
48363;SDS011;34170;54.364;18.582;2023-09-19T00:45:55;23.80;;;16.05;;
48363;SDS011;34170;54.364;18.582;2023-09-19T00:48:24;21.95;;;16.48;;
48363;SDS011;34170;54.364;18.582;2023-09-19T00:50:55;21.52;;;16.50;;
48363;SDS011;34170;54.364;18.582;2023-09-19T00:53:24;22.92;;;17.58;;
48363;SDS011;34170;54.364;18.582;2023-09-19T00:55:54;21.80;;;17.10;;
48363;SDS011;34170;54.364;18.582;2023-09-19T00:58:23;20.15;;;16.85;;
48363;SDS011;34170;54.364;18.582;2023-09-19T01:00:51;19.02;;;16.42;;
48363;SDS011;34170;54.364;18.582;2023-09-19T01:03:20;19.55;;;16.35;;
48363;SDS011;34170;54.364;18.582;2023-09-19T01:05:50;20.75;;;17.27;;
48363;SDS011;34170;54.364;18.582;2023-09-19T01:08:18;27.80;;;16.27;;
48363;SDS011;34170;54.364;18.582;2023-09-19T01:10:51;22.60;;;16.95;;
48363;SDS011;34170;54.364;18.582;2023-09-19T01:13:26;19.27;;;16.25;;
48363;SDS011;34170;54.364;18.582;2023-09-19T01:16:19;18.52;;;16.20;;
48363;SDS011;34170;54.364;18.582;2023-09-19T01:21:55;21.52;;;17.48;;
48363;SDS011;34170;54.364;18.582;2023-09-19T01:24:55;23.48;;;17.45;;
48363;SDS011;34170;54.364;18.582;2023-09-19T01:27:53;21.80;;;17.58;;
48363;SDS011;34170;54.364;18.582;2023-09-19T01:30:35;25.67;;;18.05;;
48363;SDS011;34170;54.364;18.582;2023-09-19T01:33:06;22.70;;;18.80;;
48363;SDS011;34170;54.364;18.582;2023-09-19T01:35:35;19.98;;;17.30;;
48363;SDS011;34170;54.364;18.582;2023-09-19T01:38:06;23.08;;;18.35;;
48363;SDS011;34170;54.364;18.582;2023-09-19T01:40:41;23.45;;;18.20;;
48363;SDS011;34170;54.364;18.582;2023-09-19T01:43:23;22.30;;;18.40;;
48363;SDS011;34170;54.364;18.582;2023-09-19T01:54:16;20.33;;;17.77;;
48363;SDS011;34170;54.364;18.582;2023-09-19T01:57:01;24.75;;;17.42;;
48363;SDS011;34170;54.364;18.582;2023-09-19T01:59:38;19.65;;;16.95;;
48363;SDS011;34170;54.364;18.582;2023-09-19T02:02:21;21.80;;;16.20;;
48363;SDS011;34170;54.364;18.582;2023-09-19T02:04:50;19.70;;;16.05;;
48363;SDS011;34170;54.364;18.582;2023-09-19T02:07:18;21.42;;;15.57;;
48363;SDS011;34170;54.364;18.582;2023-09-19T02:09:45;19.38;;;15.20;;
48363;SDS011;34170;54.364;18.582;2023-09-19T02:12:14;17.38;;;14.60;;
48363;SDS011;34170;54.364;18.582;2023-09-19T02:14:43;17.95;;;14.13;;
48363;SDS011;34170;54.364;18.582;2023-09-19T02:17:10;19.77;;;14.40;;
48363;SDS011;34170;54.364;18.582;2023-09-19T02:19:39;18.98;;;14.60;;
48363;SDS011;34170;54.364;18.582;2023-09-19T02:22:08;16.80;;;13.23;;
48363;SDS011;34170;54.364;18.582;2023-09-19T02:24:37;15.75;;;13.57;;
48363;SDS011;34170;54.364;18.582;2023-09-19T02:27:05;16.50;;;13.15;;
48363;SDS011;34170;54.364;18.582;2023-09-19T02:29:34;15.82;;;13.20;;
48363;SDS011;34170;54.364;18.582;2023-09-19T02:32:02;16.05;;;11.75;;
48363;SDS011;34170;54.364;18.582;2023-09-19T02:34:31;19.35;;;12.35;;
48363;SDS011;34170;54.364;18.582;2023-09-19T02:36:59;16.33;;;12.18;;
48363;SDS011;34170;54.364;18.582;2023-09-19T02:39:27;15.85;;;12.30;;
48363;SDS011;34170;54.364;18.582;2023-09-19T02:41:55;15.15;;;10.88;;
48363;SDS011;34170;54.364;18.582;2023-09-19T02:44:23;16.63;;;11.20;;
48363;SDS011;34170;54.364;18.582;2023-09-19T02:46:51;16.02;;;11.60;;
48363;SDS011;34170;54.364;18.582;2023-09-19T02:49:18;15.77;;;11.05;;
48363;SDS011;34170;54.364;18.582;2023-09-19T02:51:46;15.02;;;10.40;;
48363;SDS011;34170;54.364;18.582;2023-09-19T02:54:14;12.45;;;10.20;;
48363;SDS011;34170;54.364;18.582;2023-09-19T02:56:43;12.27;;;9.43;;
48363;SDS011;34170;54.364;18.582;2023-09-19T02:59:11;12.80;;;9.88;;
48363;SDS011;34170;54.364;18.582;2023-09-19T03:01:38;13.38;;;9.30;;
48363;SDS011;34170;54.364;18.582;2023-09-19T03:04:06;13.35;;;9.65;;
48363;SDS011;34170;54.364;18.582;2023-09-19T03:06:34;14.20;;;9.55;;
48363;SDS011;34170;54.364;18.582;2023-09-19T03:09:02;15.05;;;11.55;;
48363;SDS011;34170;54.364;18.582;2023-09-19T03:11:33;16.98;;;8.82;;
48363;SDS011;34170;54.364;18.582;2023-09-19T03:14:00;13.52;;;9.18;;
48363;SDS011;34170;54.364;18.582;2023-09-19T03:16:28;10.93;;;9.05;;
48363;SDS011;34170;54.364;18.582;2023-09-19T03:18:58;14.52;;;10.27;;
48363;SDS011;34170;54.364;18.582;2023-09-19T03:21:29;11.75;;;8.40;;
48363;SDS011;34170;54.364;18.582;2023-09-19T03:23:58;11.75;;;8.68;;
48363;SDS011;34170;54.364;18.582;2023-09-19T03:26:26;11.07;;;7.63;;
48363;SDS011;34170;54.364;18.582;2023-09-19T03:28:53;11.07;;;7.05;;
48363;SDS011;34170;54.364;18.582;2023-09-19T03:31:21;9.00;;;6.32;;
48363;SDS011;34170;54.364;18.582;2023-09-19T03:33:49;10.98;;;5.90;;
48363;SDS011;34170;54.364;18.582;2023-09-19T03:36:16;9.32;;;5.35;;
48363;SDS011;34170;54.364;18.582;2023-09-19T03:38:44;8.20;;;5.07;;
48363;SDS011;34170;54.364;18.582;2023-09-19T03:41:12;6.63;;;4.68;;
48363;SDS011;34170;54.364;18.582;2023-09-19T03:43:42;6.45;;;3.90;;
48363;SDS011;34170;54.364;18.582;2023-09-19T03:46:10;7.13;;;4.30;;
48363;SDS011;34170;54.364;18.582;2023-09-19T03:48:40;6.05;;;4.22;;
48363;SDS011;34170;54.364;18.582;2023-09-19T03:51:09;7.25;;;4.45;;
48363;SDS011;34170;54.364;18.582;2023-09-19T03:53:37;9.68;;;5.32;;
48363;SDS011;34170;54.364;18.582;2023-09-19T03:56:05;8.07;;;5.03;;
48363;SDS011;34170;54.364;18.582;2023-09-19T03:58:33;9.20;;;4.68;;
48363;SDS011;34170;54.364;18.582;2023-09-19T04:01:05;7.13;;;4.28;;
48363;SDS011;34170;54.364;18.582;2023-09-19T04:03:34;6.53;;;3.92;;
48363;SDS011;34170;54.364;18.582;2023-09-19T04:06:13;8.25;;;4.28;;
48363;SDS011;34170;54.364;18.582;2023-09-19T04:08:41;5.82;;;3.88;;
48363;SDS011;34170;54.364;18.582;2023-09-19T04:11:11;8.32;;;3.78;;
48363;SDS011;34170;54.364;18.582;2023-09-19T04:13:39;7.25;;;4.00;;
48363;SDS011;34170;54.364;18.582;2023-09-19T04:16:07;5.57;;;3.78;;
48363;SDS011;34170;54.364;18.582;2023-09-19T04:18:34;8.02;;;3.85;;
48363;SDS011;34170;54.364;18.582;2023-09-19T04:21:05;7.30;;;4.45;;
48363;SDS011;34170;54.364;18.582;2023-09-19T04:23:33;8.13;;;5.38;;
48363;SDS011;34170;54.364;18.582;2023-09-19T04:26:01;9.95;;;5.80;;
48363;SDS011;34170;54.364;18.582;2023-09-19T04:28:31;8.90;;;5.38;;
48363;SDS011;34170;54.364;18.582;2023-09-19T04:31:01;8.32;;;4.88;;
48363;SDS011;34170;54.364;18.582;2023-09-19T04:33:29;9.32;;;5.57;;
48363;SDS011;34170;54.364;18.582;2023-09-19T04:35:57;10.43;;;5.72;;
48363;SDS011;34170;54.364;18.582;2023-09-19T04:38:34;11.00;;;6.53;;
48363;SDS011;34170;54.364;18.582;2023-09-19T04:41:01;9.98;;;5.70;;
48363;SDS011;34170;54.364;18.582;2023-09-19T04:43:29;10.35;;;6.88;;
48363;SDS011;34170;54.364;18.582;2023-09-19T04:45:57;12.82;;;6.25;;
48363;SDS011;34170;54.364;18.582;2023-09-19T04:48:27;9.75;;;6.68;;
48363;SDS011;34170;54.364;18.582;2023-09-19T04:50:56;13.13;;;6.47;;
48363;SDS011;34170;54.364;18.582;2023-09-19T04:53:23;13.10;;;7.15;;
48363;SDS011;34170;54.364;18.582;2023-09-19T04:55:51;14.70;;;6.03;;
48363;SDS011;34170;54.364;18.582;2023-09-19T04:58:41;12.57;;;7.03;;
48363;SDS011;34170;54.364;18.582;2023-09-19T05:01:08;15.18;;;6.82;;
48363;SDS011;34170;54.364;18.582;2023-09-19T05:03:38;10.57;;;7.07;;
48363;SDS011;34170;54.364;18.582;2023-09-19T05:06:06;14.35;;;8.57;;
48363;SDS011;34170;54.364;18.582;2023-09-19T05:08:34;12.82;;;7.72;;
48363;SDS011;34170;54.364;18.582;2023-09-19T05:11:01;11.43;;;7.22;;
48363;SDS011;34170;54.364;18.582;2023-09-19T05:13:29;11.60;;;7.47;;
48363;SDS011;34170;54.364;18.582;2023-09-19T05:15:59;12.52;;;8.02;;
48363;SDS011;34170;54.364;18.582;2023-09-19T05:18:30;15.77;;;9.13;;
48363;SDS011;34170;54.364;18.582;2023-09-19T05:21:01;13.55;;;7.72;;
48363;SDS011;34170;54.364;18.582;2023-09-19T05:23:29;15.23;;;8.00;;
48363;SDS011;34170;54.364;18.582;2023-09-19T05:25:58;14.85;;;8.93;;
48363;SDS011;34170;54.364;18.582;2023-09-19T05:28:27;15.70;;;9.20;;
48363;SDS011;34170;54.364;18.582;2023-09-19T05:30:54;13.77;;;8.63;;
48363;SDS011;34170;54.364;18.582;2023-09-19T05:33:22;18.67;;;10.70;;
48363;SDS011;34170;54.364;18.582;2023-09-19T05:35:49;16.83;;;9.00;;
48363;SDS011;34170;54.364;18.582;2023-09-19T05:38:17;15.63;;;8.75;;
48363;SDS011;34170;54.364;18.582;2023-09-19T05:40:46;15.27;;;7.95;;
48363;SDS011;34170;54.364;18.582;2023-09-19T05:43:14;19.08;;;8.45;;
48363;SDS011;34170;54.364;18.582;2023-09-19T05:45:42;12.18;;;7.32;;
48363;SDS011;34170;54.364;18.582;2023-09-19T05:48:10;11.13;;;7.50;;
48363;SDS011;34170;54.364;18.582;2023-09-19T05:50:41;10.15;;;6.70;;
48363;SDS011;34170;54.364;18.582;2023-09-19T05:53:09;9.80;;;6.80;;
48363;SDS011;34170;54.364;18.582;2023-09-19T05:55:42;13.32;;;6.78;;
48363;SDS011;34170;54.364;18.582;2023-09-19T05:58:10;10.32;;;5.45;;
48363;SDS011;34170;54.364;18.582;2023-09-19T06:00:37;8.82;;;5.63;;
48363;SDS011;34170;54.364;18.582;2023-09-19T06:03:06;9.98;;;5.40;;
48363;SDS011;34170;54.364;18.582;2023-09-19T06:05:34;10.27;;;4.95;;
48363;SDS011;34170;54.364;18.582;2023-09-19T06:08:02;7.97;;;4.38;;
48363;SDS011;34170;54.364;18.582;2023-09-19T06:10:35;6.10;;;3.58;;
48363;SDS011;34170;54.364;18.582;2023-09-19T06:13:03;8.63;;;3.47;;
48363;SDS011;34170;54.364;18.582;2023-09-19T06:15:33;8.23;;;3.60;;
48363;SDS011;34170;54.364;18.582;2023-09-19T06:18:03;7.65;;;3.90;;
48363;SDS011;34170;54.364;18.582;2023-09-19T06:20:32;7.45;;;3.63;;
48363;SDS011;34170;54.364;18.582;2023-09-19T06:23:01;6.78;;;3.33;;
48363;SDS011;34170;54.364;18.582;2023-09-19T06:25:30;6.15;;;3.25;;
48363;SDS011;34170;54.364;18.582;2023-09-19T06:27:58;10.23;;;4.10;;
48363;SDS011;34170;54.364;18.582;2023-09-19T06:30:25;4.63;;;3.15;;
48363;SDS011;34170;54.364;18.582;2023-09-19T06:32:56;7.47;;;3.58;;
48363;SDS011;34170;54.364;18.582;2023-09-19T06:35:25;5.07;;;3.25;;
48363;SDS011;34170;54.364;18.582;2023-09-19T06:37:54;7.05;;;4.15;;
48363;SDS011;34170;54.364;18.582;2023-09-19T06:40:21;9.07;;;4.28;;
48363;SDS011;34170;54.364;18.582;2023-09-19T06:42:50;8.15;;;4.25;;
48363;SDS011;34170;54.364;18.582;2023-09-19T06:45:20;9.68;;;4.03;;
48363;SDS011;34170;54.364;18.582;2023-09-19T06:47:50;5.40;;;3.35;;
48363;SDS011;34170;54.364;18.582;2023-09-19T06:50:22;5.82;;;3.42;;
48363;SDS011;34170;54.364;18.582;2023-09-19T06:52:51;5.00;;;3.53;;
48363;SDS011;34170;54.364;18.582;2023-09-19T06:55:21;6.65;;;3.75;;
48363;SDS011;34170;54.364;18.582;2023-09-19T06:57:52;5.63;;;3.83;;
48363;SDS011;34170;54.364;18.582;2023-09-19T07:00:23;6.60;;;4.03;;
48363;SDS011;34170;54.364;18.582;2023-09-19T07:03:01;7.05;;;4.03;;
48363;SDS011;34170;54.364;18.582;2023-09-19T07:05:32;11.70;;;4.20;;
48363;SDS011;34170;54.364;18.582;2023-09-19T07:08:00;8.52;;;4.13;;
48363;SDS011;34170;54.364;18.582;2023-09-19T07:10:28;5.95;;;4.68;;
48363;SDS011;34170;54.364;18.582;2023-09-19T07:12:57;8.38;;;4.13;;
48363;SDS011;34170;54.364;18.582;2023-09-19T07:15:26;6.07;;;3.40;;
48363;SDS011;34170;54.364;18.582;2023-09-19T07:17:54;7.03;;;3.58;;
48363;SDS011;34170;54.364;18.582;2023-09-19T07:20:24;8.60;;;3.92;;
48363;SDS011;34170;54.364;18.582;2023-09-19T07:23:18;5.28;;;3.40;;
48363;SDS011;34170;54.364;18.582;2023-09-19T07:30:23;7.28;;;3.40;;
48363;SDS011;34170;54.364;18.582;2023-09-19T07:32:50;6.38;;;3.60;;
48363;SDS011;34170;54.364;18.582;2023-09-19T07:35:18;6.38;;;3.58;;
48363;SDS011;34170;54.364;18.582;2023-09-19T07:37:49;9.50;;;3.88;;
48363;SDS011;34170;54.364;18.582;2023-09-19T07:40:19;8.57;;;3.15;;
48363;SDS011;34170;54.364;18.582;2023-09-19T07:45:18;6.35;;;3.30;;
48363;SDS011;34170;54.364;18.582;2023-09-19T07:47:46;5.05;;;3.55;;
48363;SDS011;34170;54.364;18.582;2023-09-19T07:50:15;6.75;;;3.28;;
48363;SDS011;34170;54.364;18.582;2023-09-19T07:52:46;8.30;;;3.63;;
48363;SDS011;34170;54.364;18.582;2023-09-19T07:55:18;7.20;;;3.42;;
48363;SDS011;34170;54.364;18.582;2023-09-19T07:57:50;5.13;;;3.22;;
48363;SDS011;34170;54.364;18.582;2023-09-19T08:00:18;5.30;;;3.05;;
48363;SDS011;34170;54.364;18.582;2023-09-19T08:02:45;5.97;;;3.22;;
48363;SDS011;34170;54.364;18.582;2023-09-19T08:05:19;4.97;;;2.95;;
48363;SDS011;34170;54.364;18.582;2023-09-19T08:07:48;8.90;;;3.70;;
48363;SDS011;34170;54.364;18.582;2023-09-19T08:10:19;4.85;;;3.28;;
48363;SDS011;34170;54.364;18.582;2023-09-19T08:12:48;7.43;;;2.90;;
48363;SDS011;34170;54.364;18.582;2023-09-19T08:15:17;6.05;;;3.03;;
48363;SDS011;34170;54.364;18.582;2023-09-19T08:18:26;6.70;;;3.13;;
48363;SDS011;34170;54.364;18.582;2023-09-19T08:20:57;4.88;;;2.60;;
48363;SDS011;34170;54.364;18.582;2023-09-19T08:23:27;5.13;;;2.58;;
48363;SDS011;34170;54.364;18.582;2023-09-19T08:25:56;4.10;;;2.63;;
48363;SDS011;34170;54.364;18.582;2023-09-19T08:28:25;3.83;;;2.65;;
48363;SDS011;34170;54.364;18.582;2023-09-19T08:30:56;3.77;;;1.80;;
48363;SDS011;34170;54.364;18.582;2023-09-19T08:33:28;3.45;;;1.90;;
48363;SDS011;34170;54.364;18.582;2023-09-19T08:35:56;3.28;;;1.73;;
48363;SDS011;34170;54.364;18.582;2023-09-19T08:38:33;3.05;;;1.90;;
48363;SDS011;34170;54.364;18.582;2023-09-19T08:41:05;3.33;;;1.98;;
48363;SDS011;34170;54.364;18.582;2023-09-19T08:43:34;4.20;;;1.85;;
48363;SDS011;34170;54.364;18.582;2023-09-19T08:46:12;3.65;;;2.13;;
48363;SDS011;34170;54.364;18.582;2023-09-19T08:48:46;3.22;;;1.80;;
48363;SDS011;34170;54.364;18.582;2023-09-19T08:51:25;4.45;;;2.05;;
48363;SDS011;34170;54.364;18.582;2023-09-19T08:54:08;3.25;;;2.15;;
48363;SDS011;34170;54.364;18.582;2023-09-19T08:56:43;2.67;;;1.60;;
48363;SDS011;34170;54.364;18.582;2023-09-19T08:59:12;5.50;;;1.92;;
48363;SDS011;34170;54.364;18.582;2023-09-19T09:01:40;4.25;;;1.70;;
48363;SDS011;34170;54.364;18.582;2023-09-19T09:04:09;4.10;;;1.90;;
48363;SDS011;34170;54.364;18.582;2023-09-19T09:06:41;5.10;;;1.58;;
48363;SDS011;34170;54.364;18.582;2023-09-19T09:09:10;4.25;;;1.70;;
48363;SDS011;34170;54.364;18.582;2023-09-19T09:11:38;2.83;;;1.65;;
48363;SDS011;34170;54.364;18.582;2023-09-19T09:14:07;5.45;;;1.23;;
48363;SDS011;34170;54.364;18.582;2023-09-19T09:16:35;3.40;;;1.40;;
48363;SDS011;34170;54.364;18.582;2023-09-19T09:19:02;6.65;;;1.70;;
48363;SDS011;34170;54.364;18.582;2023-09-19T09:21:32;2.50;;;1.23;;
48363;SDS011;34170;54.364;18.582;2023-09-19T09:26:57;2.85;;;1.30;;
48363;SDS011;34170;54.364;18.582;2023-09-19T09:29:45;4.60;;;1.05;;
48363;SDS011;34170;54.364;18.582;2023-09-19T09:32:23;2.58;;;1.02;;
48363;SDS011;34170;54.364;18.582;2023-09-19T09:35:07;2.35;;;1.17;;
48363;SDS011;34170;54.364;18.582;2023-09-19T09:37:38;2.13;;;0.90;;
48363;SDS011;34170;54.364;18.582;2023-09-19T09:40:06;2.05;;;1.15;;
48363;SDS011;34170;54.364;18.582;2023-09-19T09:42:43;1.85;;;1.13;;
48363;SDS011;34170;54.364;18.582;2023-09-19T09:47:45;1.95;;;1.10;;
48363;SDS011;34170;54.364;18.582;2023-09-19T09:53:21;4.18;;;1.20;;
48363;SDS011;34170;54.364;18.582;2023-09-19T09:58:36;2.95;;;0.93;;
48363;SDS011;34170;54.364;18.582;2023-09-19T10:01:07;4.47;;;0.95;;
48363;SDS011;34170;54.364;18.582;2023-09-19T10:03:42;1.63;;;0.95;;
48363;SDS011;34170;54.364;18.582;2023-09-19T10:06:15;4.00;;;0.90;;
48363;SDS011;34170;54.364;18.582;2023-09-19T10:09:02;3.13;;;0.77;;
48363;SDS011;34170;54.364;18.582;2023-09-19T10:12:02;2.10;;;0.60;;
48363;SDS011;34170;54.364;18.582;2023-09-19T10:14:33;2.90;;;1.00;;
48363;SDS011;34170;54.364;18.582;2023-09-19T10:17:05;5.10;;;1.00;;
48363;SDS011;34170;54.364;18.582;2023-09-19T10:19:37;1.60;;;0.80;;
48363;SDS011;34170;54.364;18.582;2023-09-19T10:22:14;2.83;;;1.05;;
48363;SDS011;34170;54.364;18.582;2023-09-19T10:24:50;3.50;;;1.30;;
48363;SDS011;34170;54.364;18.582;2023-09-19T10:27:29;3.03;;;1.08;;
48363;SDS011;34170;54.364;18.582;2023-09-19T10:30:05;1.67;;;1.00;;
48363;SDS011;34170;54.364;18.582;2023-09-19T10:32:35;3.55;;;0.98;;
48363;SDS011;34170;54.364;18.582;2023-09-19T10:35:07;4.22;;;1.17;;
48363;SDS011;34170;54.364;18.582;2023-09-19T10:37:35;3.70;;;1.10;;
48363;SDS011;34170;54.364;18.582;2023-09-19T10:40:05;4.13;;;1.00;;
48363;SDS011;34170;54.364;18.582;2023-09-19T10:42:37;2.05;;;0.82;;
48363;SDS011;34170;54.364;18.582;2023-09-19T10:45:08;1.55;;;0.82;;
48363;SDS011;34170;54.364;18.582;2023-09-19T10:47:40;2.88;;;1.00;;
48363;SDS011;34170;54.364;18.582;2023-09-19T10:50:19;3.63;;;0.93;;
48363;SDS011;34170;54.364;18.582;2023-09-19T10:52:49;3.35;;;0.93;;
48363;SDS011;34170;54.364;18.582;2023-09-19T10:55:26;3.75;;;0.93;;
48363;SDS011;34170;54.364;18.582;2023-09-19T10:57:56;3.92;;;1.00;;
48363;SDS011;34170;54.364;18.582;2023-09-19T11:00:53;2.50;;;0.70;;
48363;SDS011;34170;54.364;18.582;2023-09-19T11:03:23;2.53;;;0.80;;
48363;SDS011;34170;54.364;18.582;2023-09-19T11:08:52;2.25;;;0.82;;
48363;SDS011;34170;54.364;18.582;2023-09-19T11:11:44;2.15;;;0.60;;
48363;SDS011;34170;54.364;18.582;2023-09-19T11:30:49;4.07;;;1.38;;
48363;SDS011;34170;54.364;18.582;2023-09-19T11:33:21;2.90;;;1.17;;
48363;SDS011;34170;54.364;18.582;2023-09-19T11:43:48;2.85;;;0.90;;
48363;SDS011;34170;54.364;18.582;2023-09-19T11:46:21;3.33;;;1.00;;
48363;SDS011;34170;54.364;18.582;2023-09-19T11:48:49;2.22;;;1.02;;
48363;SDS011;34170;54.364;18.582;2023-09-19T11:51:18;2.50;;;1.13;;
48363;SDS011;34170;54.364;18.582;2023-09-19T11:53:55;1.98;;;1.08;;
48363;SDS011;34170;54.364;18.582;2023-09-19T11:56:27;2.30;;;0.90;;
48363;SDS011;34170;54.364;18.582;2023-09-19T11:58:55;4.65;;;1.17;;
48363;SDS011;34170;54.364;18.582;2023-09-19T12:01:29;1.80;;;1.00;;
48363;SDS011;34170;54.364;18.582;2023-09-19T12:04:00;2.65;;;1.00;;
48363;SDS011;34170;54.364;18.582;2023-09-19T12:06:30;1.98;;;1.10;;
48363;SDS011;34170;54.364;18.582;2023-09-19T12:09:01;3.03;;;1.40;;
48363;SDS011;34170;54.364;18.582;2023-09-19T12:11:40;1.92;;;0.90;;
48363;SDS011;34170;54.364;18.582;2023-09-19T12:15:42;2.47;;;1.20;;
48363;SDS011;34170;54.364;18.582;2023-09-19T12:20:55;3.13;;;1.10;;
48363;SDS011;34170;54.364;18.582;2023-09-19T12:23:25;2.60;;;1.20;;
48363;SDS011;34170;54.364;18.582;2023-09-19T12:25:53;3.72;;;1.33;;
48363;SDS011;34170;54.364;18.582;2023-09-19T12:28:26;2.38;;;0.93;;
48363;SDS011;34170;54.364;18.582;2023-09-19T12:30:54;2.33;;;1.00;;
48363;SDS011;34170;54.364;18.582;2023-09-19T12:33:23;4.00;;;1.00;;
48363;SDS011;34170;54.364;18.582;2023-09-19T12:35:53;5.50;;;1.10;;
48363;SDS011;34170;54.364;18.582;2023-09-19T12:40:55;4.20;;;1.20;;
48363;SDS011;34170;54.364;18.582;2023-09-19T12:43:27;1.80;;;0.98;;
48363;SDS011;34170;54.364;18.582;2023-09-19T12:45:59;2.53;;;1.10;;
48363;SDS011;34170;54.364;18.582;2023-09-19T12:48:28;2.72;;;0.90;;
48363;SDS011;34170;54.364;18.582;2023-09-19T12:53:37;4.05;;;0.93;;
48363;SDS011;34170;54.364;18.582;2023-09-19T12:56:14;6.03;;;1.10;;
48363;SDS011;34170;54.364;18.582;2023-09-19T12:58:56;2.75;;;1.17;;
48363;SDS011;34170;54.364;18.582;2023-09-19T13:01:30;4.93;;;1.17;;
48363;SDS011;34170;54.364;18.582;2023-09-19T13:06:47;3.08;;;1.08;;
48363;SDS011;34170;54.364;18.582;2023-09-19T13:09:17;2.80;;;0.68;;
48363;SDS011;34170;54.364;18.582;2023-09-19T13:11:47;2.33;;;0.90;;
48363;SDS011;34170;54.364;18.582;2023-09-19T13:14:25;2.92;;;1.30;;
48363;SDS011;34170;54.364;18.582;2023-09-19T13:17:07;2.15;;;0.90;;
48363;SDS011;34170;54.364;18.582;2023-09-19T13:19:47;3.85;;;1.02;;
48363;SDS011;34170;54.364;18.582;2023-09-19T13:25:27;3.45;;;0.88;;
48363;SDS011;34170;54.364;18.582;2023-09-19T13:27:58;3.00;;;1.00;;
48363;SDS011;34170;54.364;18.582;2023-09-19T13:30:27;3.83;;;1.05;;
48363;SDS011;34170;54.364;18.582;2023-09-19T13:33:08;2.42;;;0.63;;
48363;SDS011;34170;54.364;18.582;2023-09-19T13:35:38;2.97;;;1.00;;
48363;SDS011;34170;54.364;18.582;2023-09-19T13:38:08;2.70;;;1.05;;
48363;SDS011;34170;54.364;18.582;2023-09-19T13:40:39;2.42;;;1.00;;
48363;SDS011;34170;54.364;18.582;2023-09-19T13:43:09;2.13;;;0.77;;
48363;SDS011;34170;54.364;18.582;2023-09-19T13:45:38;3.13;;;0.98;;
48363;SDS011;34170;54.364;18.582;2023-09-19T13:48:09;2.00;;;0.88;;
48363;SDS011;34170;54.364;18.582;2023-09-19T13:50:38;4.25;;;0.75;;
48363;SDS011;34170;54.364;18.582;2023-09-19T13:53:09;2.25;;;0.75;;
48363;SDS011;34170;54.364;18.582;2023-09-19T13:55:37;2.45;;;1.30;;
48363;SDS011;34170;54.364;18.582;2023-09-19T13:58:05;3.38;;;0.90;;
48363;SDS011;34170;54.364;18.582;2023-09-19T14:00:34;2.65;;;0.90;;
48363;SDS011;34170;54.364;18.582;2023-09-19T14:03:01;2.38;;;1.15;;
48363;SDS011;34170;54.364;18.582;2023-09-19T14:05:30;5.10;;;1.23;;
48363;SDS011;34170;54.364;18.582;2023-09-19T14:07:58;2.45;;;1.20;;
48363;SDS011;34170;54.364;18.582;2023-09-19T14:10:26;2.63;;;1.15;;
48363;SDS011;34170;54.364;18.582;2023-09-19T14:12:54;7.13;;;1.42;;
48363;SDS011;34170;54.364;18.582;2023-09-19T14:15:22;2.58;;;1.05;;
48363;SDS011;34170;54.364;18.582;2023-09-19T14:17:57;4.47;;;1.10;;
48363;SDS011;34170;54.364;18.582;2023-09-19T14:20:27;3.30;;;1.10;;
48363;SDS011;34170;54.364;18.582;2023-09-19T14:22:54;2.78;;;0.73;;
48363;SDS011;34170;54.364;18.582;2023-09-19T14:25:22;3.00;;;1.33;;
48363;SDS011;34170;54.364;18.582;2023-09-19T14:27:50;2.60;;;0.95;;
48363;SDS011;34170;54.364;18.582;2023-09-19T14:30:19;5.10;;;1.30;;
48363;SDS011;34170;54.364;18.582;2023-09-19T14:32:46;4.55;;;1.10;;
48363;SDS011;34170;54.364;18.582;2023-09-19T14:35:14;2.55;;;1.08;;
48363;SDS011;34170;54.364;18.582;2023-09-19T14:37:42;4.45;;;0.80;;
48363;SDS011;34170;54.364;18.582;2023-09-19T14:40:09;3.58;;;0.93;;
48363;SDS011;34170;54.364;18.582;2023-09-19T14:42:38;2.78;;;0.82;;
48363;SDS011;34170;54.364;18.582;2023-09-19T14:45:06;6.68;;;1.38;;
48363;SDS011;34170;54.364;18.582;2023-09-19T14:47:34;2.00;;;0.80;;
48363;SDS011;34170;54.364;18.582;2023-09-19T14:50:03;3.25;;;1.02;;
48363;SDS011;34170;54.364;18.582;2023-09-19T14:52:34;2.53;;;1.05;;
48363;SDS011;34170;54.364;18.582;2023-09-19T14:55:03;2.90;;;0.98;;
48363;SDS011;34170;54.364;18.582;2023-09-19T14:57:33;2.13;;;1.00;;
48363;SDS011;34170;54.364;18.582;2023-09-19T15:00:00;3.28;;;1.08;;
48363;SDS011;34170;54.364;18.582;2023-09-19T15:02:29;3.72;;;1.23;;
48363;SDS011;34170;54.364;18.582;2023-09-19T15:04:57;3.28;;;1.10;;
48363;SDS011;34170;54.364;18.582;2023-09-19T15:07:25;3.97;;;1.08;;
48363;SDS011;34170;54.364;18.582;2023-09-19T15:09:54;2.47;;;1.17;;
48363;SDS011;34170;54.364;18.582;2023-09-19T15:12:21;3.30;;;1.10;;
48363;SDS011;34170;54.364;18.582;2023-09-19T15:14:49;4.13;;;1.25;;
48363;SDS011;34170;54.364;18.582;2023-09-19T15:17:16;2.80;;;1.20;;
48363;SDS011;34170;54.364;18.582;2023-09-19T15:19:46;3.00;;;1.38;;
48363;SDS011;34170;54.364;18.582;2023-09-19T15:22:13;3.60;;;1.33;;
48363;SDS011;34170;54.364;18.582;2023-09-19T15:24:41;4.25;;;1.33;;
48363;SDS011;34170;54.364;18.582;2023-09-19T15:27:09;3.15;;;1.50;;
48363;SDS011;34170;54.364;18.582;2023-09-19T15:29:36;2.85;;;1.27;;
48363;SDS011;34170;54.364;18.582;2023-09-19T15:32:06;2.25;;;1.08;;
48363;SDS011;34170;54.364;18.582;2023-09-19T15:34:33;3.30;;;1.27;;
48363;SDS011;34170;54.364;18.582;2023-09-19T15:37:01;3.80;;;1.58;;
48363;SDS011;34170;54.364;18.582;2023-09-19T15:39:32;2.20;;;1.10;;
48363;SDS011;34170;54.364;18.582;2023-09-19T15:42:04;3.58;;;1.20;;
48363;SDS011;34170;54.364;18.582;2023-09-19T15:44:31;2.75;;;1.40;;
48363;SDS011;34170;54.364;18.582;2023-09-19T15:47:00;4.03;;;1.35;;
48363;SDS011;34170;54.364;18.582;2023-09-19T15:49:28;6.40;;;1.65;;
48363;SDS011;34170;54.364;18.582;2023-09-19T15:51:55;5.00;;;1.60;;
48363;SDS011;34170;54.364;18.582;2023-09-19T15:54:23;3.33;;;1.40;;
48363;SDS011;34170;54.364;18.582;2023-09-19T15:56:52;4.40;;;2.22;;
48363;SDS011;34170;54.364;18.582;2023-09-19T15:59:20;1.63;;;1.05;;
48363;SDS011;34170;54.364;18.582;2023-09-19T16:01:47;4.35;;;1.27;;